Cheikh El Mokrani — C6WD5 — position and weather

sailwx.info

Track history (hours):
 
Tides and Currents Weather Stations Pressure Air Temp Water Temp Dewpoint Dewpoint Depression Visibility Wind Speed Wind Dir Waves Ship Positions

Cheikh El Mokrani

Last reported at 2017-Apr-23 07:17 UTC. Time now 2017-Apr-23 21:48 UTC.
Position N 39°38' W 000°13'.

Length 220 m; draft 10 m.

Type: Ship (hazmat cat D). MMSI: 309979000.

Date/timePositionNaut miles runAvg speedWind from/ knotsBaromVisibWave heightAir tempDewpointWater temp
2017-Apr-23 07:17N 39°38' W 000°13'0 0.3
2017-Apr-23 07:00N 39°38' W 000°13'0 0.7
2017-Apr-23 06:30N 39°38' W 000°12'2 3.3
2017-Apr-23 05:49N 39°36' W 000°11'1 4.0
2017-Apr-23 05:29N 39°36' W 000°09'3 5.5
2017-Apr-23 04:59N 39°33' W 000°07'3 5.8
2017-Apr-23 04:30N 39°31' W 000°04'3 6.5
2017-Apr-23 03:59N 39°29' W 000°02'30 4.1
2017-Apr-22 20:30N 39°06' E 000°25'3 6.7
2017-Apr-22 20:00N 39°04' E 000°28'4 6.6
2017-Apr-22 19:21N 39°00' E 000°31'3 6.3
2017-Apr-22 18:52N 38°58' E 000°34'28 6.7
2017-Apr-22 14:39N 38°38' E 000°59'4 7.0
2017-Apr-22 14:08N 38°35' E 001°02'  
2017-Apr-18 01:50N 37°02' E 006°57'2 5.8
2017-Apr-18 01:30N 36°60' E 006°58'2 0.8
2017-Apr-17 23:00N 37°02' E 006°57'0 0.7
2017-Apr-17 22:30N 37°02' E 006°57'  
2017-Apr-15 18:06N 37°03' E 006°51'2610.3
2017-Apr-15 15:32N 37°11' E 006°19'112.1
2017-Apr-15 15:26N 37°11' E 006°18'512.1
2017-Apr-15 15:00N 37°10' E 006°11'612.2
2017-Apr-15 14:30N 37°10' E 006°04'3512.1
2017-Apr-15 11:38N 37°08' E 005°20'1212.1
2017-Apr-15 10:38N 37°08' E 005°05'512.1
2017-Apr-15 10:14N 37°07' E 004°58'312.2
2017-Apr-15 10:00N 37°07' E 004°55'612.3
2017-Apr-15 09:29N 37°07' E 004°47'712.4
2017-Apr-15 08:57N 37°07' E 004°39'3311.8
2017-Apr-15 06:09N 37°04' E 003°57'311.8
2017-Apr-15 05:54N 37°04' E 003°54'512.0
2017-Apr-15 05:30N 37°03' E 003°48'611.9
2017-Apr-15 05:00N 37°02' E 003°40'611.8
2017-Apr-15 04:27N 37°01' E 003°32'511.9
2017-Apr-15 04:00N 37°01' E 003°26'611.8
2017-Apr-15 03:30N 36°60' E 003°19'611.7
2017-Apr-15 03:00N 36°59' E 003°11'811.7
2017-Apr-15 02:19N 36°57' E 003°01'412.0
2017-Apr-15 02:00N 36°57' E 002°57'710.0
2017-Apr-15 01:19N 36°56' E 002°48'5 9.2
2017-Apr-15 00:45N 36°55' E 002°42'2 9.0
2017-Apr-15 00:30N 36°55' E 002°39'5 8.8
2017-Apr-14 23:58N 36°54' E 002°33'510.6
2017-Apr-14 23:30N 36°54' E 002°27'811.3
2017-Apr-14 22:50N 36°54' E 002°18'411.1
2017-Apr-14 22:30N 36°54' E 002°13'611.1
2017-Apr-14 22:00N 36°54' E 002°06'1510.9
2017-Apr-14 20:40N 36°51' E 001°48'211.0
2017-Apr-14 20:29N 36°50' E 001°47'511.1
2017-Apr-14 20:00N 36°47' E 001°41'611.6
2017-Apr-14 19:30N 36°46' E 001°34'611.3
2017-Apr-14 18:59N 36°43' E 001°27'1112.3
2017-Apr-14 18:06N 36°39' E 001°15'112.5
2017-Apr-14 17:59N 36°39' E 001°13'712.2
2017-Apr-14 17:25N 36°37' E 001°05'511.8
2017-Apr-14 17:00N 36°36' E 000°59'611.6
2017-Apr-14 16:30N 36°34' E 000°52'611.3
2017-Apr-14 16:00N 36°32' E 000°45'511.0
2017-Apr-14 15:30N 36°30' E 000°39'611.7
2017-Apr-14 15:00N 36°29' E 000°32'612.2
2017-Apr-14 14:30N 36°25' E 000°26'1412.7
2017-Apr-14 13:23N 36°16' E 000°12'24 2.6
2017-Apr-14 04:08N 35°57' W 000°07'0 1.0
2017-Apr-14 04:00N 35°57' W 000°07'0 0.9
2017-Apr-14 03:30N 35°57' W 000°08'0 0.8
2017-Apr-14 03:00N 35°56' W 000°08'0 0.3
2017-Apr-14 02:30N 35°56' W 000°08'4 0.7
2017-Apr-13 20:29N 36°00' W 000°10'0 0.6
2017-Apr-13 20:00N 36°00' W 000°10'4 1.3
2017-Apr-13 17:03N 35°57' W 000°10'0 0.4
2017-Apr-13 16:59N 35°57' W 000°10'0 0.4
2017-Apr-13 16:26N 35°57' W 000°10'2 1.4
2017-Apr-13 14:47N 35°55' W 000°11'2 4.0
2017-Apr-13 14:14N 35°54' W 000°09'2 0.7
2017-Apr-13 11:37N 35°55' W 000°10'0 0.5
2017-Apr-13 11:29N 35°55' W 000°11'0 0.5
2017-Apr-13 10:59N 35°55' W 000°11'  
Track history (hours):
 
Tides and Currents Weather Stations Pressure Air Temp Water Temp Dewpoint Dewpoint Depression Visibility Wind Speed Wind Dir Waves Ship Positions

Cheikh El Mokrani

Last reported at 2017-Apr-23 07:17 UTC. Time now 2017-Apr-23 21:48 UTC.
Position N 39°38' W 000°13'.

Length 220 m; draft 10 m.

Type: Ship (hazmat cat D). MMSI: 309979000.

Date/timePositionNaut miles runAvg speedWind from/ knotsBaromVisibWave heightAir tempDewpointWater temp
2017-Apr-23 07:17N 39°38' W 000°13'0 0.3
2017-Apr-23 07:00N 39°38' W 000°13'0 0.7
2017-Apr-23 06:30N 39°38' W 000°12'2 3.3
2017-Apr-23 05:49N 39°36' W 000°11'1 4.0
2017-Apr-23 05:29N 39°36' W 000°09'3 5.5
2017-Apr-23 04:59N 39°33' W 000°07'3 5.8
2017-Apr-23 04:30N 39°31' W 000°04'3 6.5
2017-Apr-23 03:59N 39°29' W 000°02'30 4.1
2017-Apr-22 20:30N 39°06' E 000°25'3 6.7
2017-Apr-22 20:00N 39°04' E 000°28'4 6.6
2017-Apr-22 19:21N 39°00' E 000°31'3 6.3
2017-Apr-22 18:52N 38°58' E 000°34'28 6.7
2017-Apr-22 14:39N 38°38' E 000°59'4 7.0
2017-Apr-22 14:08N 38°35' E 001°02'  
2017-Apr-18 01:50N 37°02' E 006°57'2 5.8
2017-Apr-18 01:30N 36°60' E 006°58'2 0.8
2017-Apr-17 23:00N 37°02' E 006°57'0 0.7
2017-Apr-17 22:30N 37°02' E 006°57'  
2017-Apr-15 18:06N 37°03' E 006°51'2610.3
2017-Apr-15 15:32N 37°11' E 006°19'112.1
2017-Apr-15 15:26N 37°11' E 006°18'512.1
2017-Apr-15 15:00N 37°10' E 006°11'612.2
2017-Apr-15 14:30N 37°10' E 006°04'3512.1
2017-Apr-15 11:38N 37°08' E 005°20'1212.1
2017-Apr-15 10:38N 37°08' E 005°05'512.1
2017-Apr-15 10:14N 37°07' E 004°58'312.2
2017-Apr-15 10:00N 37°07' E 004°55'612.3
2017-Apr-15 09:29N 37°07' E 004°47'712.4
2017-Apr-15 08:57N 37°07' E 004°39'3311.8
2017-Apr-15 06:09N 37°04' E 003°57'311.8
2017-Apr-15 05:54N 37°04' E 003°54'512.0
2017-Apr-15 05:30N 37°03' E 003°48'611.9
2017-Apr-15 05:00N 37°02' E 003°40'611.8
2017-Apr-15 04:27N 37°01' E 003°32'511.9
2017-Apr-15 04:00N 37°01' E 003°26'611.8
2017-Apr-15 03:30N 36°60' E 003°19'611.7
2017-Apr-15 03:00N 36°59' E 003°11'811.7
2017-Apr-15 02:19N 36°57' E 003°01'412.0
2017-Apr-15 02:00N 36°57' E 002°57'710.0
2017-Apr-15 01:19N 36°56' E 002°48'5 9.2
2017-Apr-15 00:45N 36°55' E 002°42'2 9.0
2017-Apr-15 00:30N 36°55' E 002°39'5 8.8
2017-Apr-14 23:58N 36°54' E 002°33'510.6
2017-Apr-14 23:30N 36°54' E 002°27'811.3
2017-Apr-14 22:50N 36°54' E 002°18'411.1
2017-Apr-14 22:30N 36°54' E 002°13'611.1
2017-Apr-14 22:00N 36°54' E 002°06'1510.9
2017-Apr-14 20:40N 36°51' E 001°48'211.0
2017-Apr-14 20:29N 36°50' E 001°47'511.1
2017-Apr-14 20:00N 36°47' E 001°41'611.6
2017-Apr-14 19:30N 36°46' E 001°34'611.3
2017-Apr-14 18:59N 36°43' E 001°27'1112.3
2017-Apr-14 18:06N 36°39' E 001°15'112.5
2017-Apr-14 17:59N 36°39' E 001°13'712.2
2017-Apr-14 17:25N 36°37' E 001°05'511.8
2017-Apr-14 17:00N 36°36' E 000°59'611.6
2017-Apr-14 16:30N 36°34' E 000°52'611.3
2017-Apr-14 16:00N 36°32' E 000°45'511.0
2017-Apr-14 15:30N 36°30' E 000°39'611.7
2017-Apr-14 15:00N 36°29' E 000°32'612.2
2017-Apr-14 14:30N 36°25' E 000°26'1412.7
2017-Apr-14 13:23N 36°16' E 000°12'24 2.6
2017-Apr-14 04:08N 35°57' W 000°07'0 1.0
2017-Apr-14 04:00N 35°57' W 000°07'0 0.9
2017-Apr-14 03:30N 35°57' W 000°08'0 0.8
2017-Apr-14 03:00N 35°56' W 000°08'0 0.3
2017-Apr-14 02:30N 35°56' W 000°08'4 0.7
2017-Apr-13 20:29N 36°00' W 000°10'0 0.6
2017-Apr-13 20:00N 36°00' W 000°10'4 1.3
2017-Apr-13 17:03N 35°57' W 000°10'0 0.4
2017-Apr-13 16:59N 35°57' W 000°10'0 0.4
2017-Apr-13 16:26N 35°57' W 000°10'2 1.4
2017-Apr-13 14:47N 35°55' W 000°11'2 4.0
2017-Apr-13 14:14N 35°54' W 000°09'2 0.7
2017-Apr-13 11:37N 35°55' W 000°10'0 0.5
2017-Apr-13 11:29N 35°55' W 000°11'0 0.5
2017-Apr-13 10:59N 35°55' W 000°11'  

Dump ship's entire track history